Burnham on Crouch, United Kingdom
Current Conditions -  °F | °C
As of 6:50 AM on Friday 19 Dec 2014 (Local Time) from EGMC Reporting Station
Broken Clouds Broken Clouds  
Wind Chill: 55°   Ceiling: 1300
Heat Index: 55°   Visibility: 6mi
Dew Point: 50°   Wind: 16mph
Humidity: 82%   Direction: 250°WSW
Pressure: 29.77"   Gusts: NA
Location:  51.63°N, 0.81°E
Report Text: EGMC 190650Z 25014KT 9999 BKN013 BKN015 13/10 Q1008
Loading
Personal Weather Stations






























Interactive Weather Map New forecast layout! Learn more

10-Day Weather Forecast

Advertisements
Track Severe Weather on mobile